createdAt,value
2019-05-06T00:02:30.401Z,99.90
2019-05-06T00:05:01.143Z,99.90
2019-05-06T00:07:33.964Z,99.90
2019-05-06T00:10:06.514Z,99.90
2019-05-06T00:12:37.275Z,99.90
2019-05-06T00:15:10.548Z,99.90
2019-05-06T00:17:47.894Z,99.90
2019-05-06T00:20:19.814Z,99.90
2019-05-06T00:23:06.255Z,99.90
2019-05-06T00:25:45.903Z,99.90
2019-05-06T00:28:36.397Z,99.90
2019-05-06T00:31:13.275Z,99.90
2019-05-06T00:33:44.369Z,99.90
2019-05-06T00:36:15.746Z,99.90
2019-05-06T00:38:49.076Z,99.90
2019-05-06T00:41:27.211Z,99.90
2019-05-06T00:43:57.931Z,99.90
2019-05-06T00:46:30.367Z,99.90
2019-05-06T00:49:03.831Z,99.90
2019-05-06T00:51:36.375Z,99.90
2019-05-06T00:54:16.006Z,99.90
2019-05-06T00:56:46.856Z,99.90
2019-05-06T00:59:23.805Z,99.90
2019-05-06T01:01:56.166Z,99.90
2019-05-06T01:04:26.672Z,99.90
2019-05-06T01:07:00.271Z,99.90
2019-05-06T01:09:40.114Z,99.90
2019-05-06T01:12:14.227Z,99.90
2019-05-06T01:14:58.297Z,99.90
2019-05-06T01:17:29.736Z,99.90
2019-05-06T01:20:00.310Z,99.90
2019-05-06T01:22:30.656Z,99.90
2019-05-06T01:25:05.418Z,99.90
2019-05-06T01:27:36.186Z,99.90
2019-05-06T01:30:07.461Z,99.90
2019-05-06T01:32:43.447Z,99.90
2019-05-06T01:35:14.143Z,99.90
2019-05-06T01:37:48.199Z,99.90
2019-05-06T01:40:44.005Z,99.90
2019-05-06T01:43:21.561Z,99.90
2019-05-06T01:45:53.750Z,99.90
2019-05-06T01:48:44.340Z,99.90
2019-05-06T01:51:15.075Z,99.90
2019-05-06T01:53:45.947Z,99.90
2019-05-06T01:56:16.663Z,99.90
2019-05-06T01:58:48.906Z,99.90
2019-05-06T02:01:19.893Z,99.90
2019-05-06T02:03:53.830Z,99.90
2019-05-06T02:06:25.138Z,99.90
2019-05-06T02:08:56.288Z,99.90
2019-05-06T02:11:28.667Z,99.90
2019-05-06T02:13:59.120Z,99.90
2019-05-06T02:16:34.267Z,99.90
2019-05-06T02:19:06.362Z,99.90
2019-05-06T02:21:56.600Z,99.90
2019-05-06T02:24:35.002Z,99.90
2019-05-06T02:27:05.921Z,99.90
2019-05-06T02:29:41.078Z,99.90
2019-05-06T02:32:31.723Z,99.90
2019-05-06T02:35:37.466Z,99.90
2019-05-06T02:38:33.195Z,99.90
2019-05-06T02:40:57.041Z,99.90
2019-05-06T02:43:28.665Z,99.90
2019-05-06T02:46:03.971Z,99.90
2019-05-06T02:48:43.484Z,99.90
2019-05-06T02:51:17.723Z,99.90
2019-05-06T02:53:53.973Z,99.90
2019-05-06T02:56:25.435Z,99.90
2019-05-06T02:58:55.965Z,99.90
2019-05-06T03:01:28.559Z,99.90
2019-05-06T03:04:00.130Z,99.90
2019-05-06T03:06:33.738Z,99.90
2019-05-06T03:09:05.299Z,99.90
2019-05-06T03:11:36.734Z,99.90
2019-05-06T03:14:07.153Z,99.90
2019-05-06T03:16:48.727Z,99.90
2019-05-06T03:19:19.853Z,99.90
2019-05-06T03:22:07.493Z,99.90
2019-05-06T03:24:54.194Z,99.90
2019-05-06T03:27:26.263Z,99.90
2019-05-06T03:29:58.082Z,99.90
2019-05-06T03:32:30.677Z,99.90
2019-05-06T03:35:25.704Z,99.90
2019-05-06T03:37:36.598Z,99.90
2019-05-06T03:40:08.298Z,99.90
2019-05-06T03:42:39.410Z,99.90
2019-05-06T03:45:18.932Z,99.90
2019-05-06T03:48:05.733Z,99.90
2019-05-06T03:50:37.172Z,99.90
2019-05-06T03:53:08.793Z,99.90
2019-05-06T03:55:47.124Z,99.90
2019-05-06T03:58:26.709Z,99.90
2019-05-06T04:00:59.142Z,99.90
2019-05-06T04:03:44.077Z,99.90
2019-05-06T04:06:07.073Z,99.90
2019-05-06T04:08:40.066Z,99.90
2019-05-06T04:11:22.924Z,99.90
2019-05-06T04:13:57.391Z,99.90
2019-05-06T04:16:39.083Z,99.90
2019-05-06T04:19:24.061Z,99.90
2019-05-06T04:22:03.503Z,99.90
2019-05-06T04:24:43.073Z,99.90
2019-05-06T04:27:49.030Z,99.90
2019-05-06T04:30:19.334Z,99.90
2019-05-06T04:32:48.827Z,99.90
2019-05-06T04:35:18.541Z,99.90
2019-05-06T04:37:47.860Z,99.90
2019-05-06T04:40:17.686Z,99.90
2019-05-06T04:42:46.966Z,99.90
2019-05-06T04:45:17.627Z,99.90
2019-05-06T04:47:47.725Z,99.90
2019-05-06T04:50:19.375Z,99.90
2019-05-06T04:52:56.300Z,99.90
2019-05-06T04:55:25.619Z,99.90
2019-05-06T04:57:55.041Z,99.90
2019-05-06T05:00:24.561Z,99.90
2019-05-06T05:02:54.998Z,99.90
2019-05-06T05:05:25.199Z,99.90
2019-05-06T05:07:54.461Z,99.90
2019-05-06T05:10:27.613Z,99.90
2019-05-06T05:13:07.487Z,99.90
2019-05-06T05:16:02.139Z,99.90
2019-05-06T05:18:38.527Z,99.90
2019-05-06T05:21:07.798Z,99.90
2019-05-06T05:23:37.598Z,99.90
2019-05-06T05:26:07.179Z,99.90
2019-05-06T05:28:36.934Z,99.90
2019-05-06T05:31:06.386Z,99.90
2019-05-06T05:33:35.761Z,99.90
2019-05-06T05:36:05.294Z,99.90
2019-05-06T05:38:36.116Z,99.90
2019-05-06T05:41:05.562Z,99.90
2019-05-06T05:43:42.451Z,99.90
2019-05-06T05:46:12.662Z,99.90
2019-05-06T05:49:13.728Z,99.90
2019-05-06T05:51:45.709Z,99.90
2019-05-06T05:54:14.999Z,99.90
2019-05-06T05:56:45.141Z,99.90
2019-05-06T05:59:14.393Z,99.90
2019-05-06T06:01:44.389Z,99.90
2019-05-06T06:04:13.839Z,99.90
2019-05-06T06:06:43.164Z,99.90
2019-05-06T06:09:13.724Z,99.90
2019-05-06T06:11:54.539Z,99.90
2019-05-06T06:14:47.359Z,99.90
2019-05-06T06:17:36.182Z,99.90
2019-05-06T06:20:27.139Z,99.90
2019-05-06T06:22:59.352Z,99.90
2019-05-06T06:25:33.264Z,99.90
2019-05-06T06:28:04.227Z,99.90
2019-05-06T06:30:46.907Z,99.90
2019-05-06T06:33:16.231Z,99.80
2019-05-06T06:35:55.331Z,99.50
2019-05-06T06:38:43.698Z,99.50
2019-05-06T06:41:12.962Z,98.80
2019-05-06T06:43:46.605Z,98.90
2019-05-06T06:46:15.978Z,98.50
2019-05-06T06:48:45.562Z,98.30
2019-05-06T06:51:14.914Z,98.60
2019-05-06T06:53:44.374Z,98.00
2019-05-06T06:56:24.583Z,98.00
2019-05-06T06:59:13.696Z,98.10
2019-05-06T07:01:53.647Z,97.70
2019-05-06T07:04:32.397Z,97.40
2019-05-06T07:07:03.234Z,97.30
2019-05-06T07:09:32.675Z,96.50
2019-05-06T07:12:03.472Z,96.50
2019-05-06T07:14:35.969Z,96.70
2019-05-06T07:17:04.057Z,96.10
2019-05-06T07:19:38.829Z,95.30
2019-05-06T07:22:08.131Z,94.70
2019-05-06T07:24:37.430Z,94.50
2019-05-06T07:27:32.407Z,94.30
2019-05-06T07:30:04.136Z,93.70
2019-05-06T07:32:34.386Z,92.70
2019-05-06T07:35:08.897Z,92.20
2019-05-06T07:37:38.921Z,92.10
2019-05-06T07:40:09.175Z,91.30
2019-05-06T07:42:43.661Z,90.60
2019-05-06T07:45:42.607Z,90.90
2019-05-06T07:48:13.854Z,90.00
2019-05-06T07:50:43.969Z,89.60
2019-05-06T07:53:13.449Z,88.40
2019-05-06T07:55:45.165Z,86.90
2019-05-06T07:58:14.529Z,86.30
2019-05-06T08:00:43.827Z,85.30
2019-05-06T08:03:14.028Z,84.80
2019-05-06T08:05:55.200Z,81.70
2019-05-06T08:08:16.705Z,81.70
2019-05-06T08:10:46.007Z,80.10
2019-05-06T08:13:15.315Z,81.20
2019-05-06T08:15:45.537Z,79.00
2019-05-06T08:18:16.785Z,80.50
2019-05-06T08:20:46.152Z,80.50
2019-05-06T08:23:22.039Z,79.30
2019-05-06T08:25:54.323Z,78.20
2019-05-06T08:28:37.490Z,76.40
2019-05-06T08:30:55.154Z,76.50
2019-05-06T08:33:27.575Z,75.70
2019-05-06T08:36:08.874Z,74.40
2019-05-06T08:38:27.561Z,73.00
2019-05-06T08:40:56.833Z,71.00
2019-05-06T08:43:26.134Z,71.30
2019-05-06T08:45:55.511Z,72.30
2019-05-06T08:48:24.839Z,74.00
2019-05-06T08:51:04.903Z,70.20
2019-05-06T08:53:45.138Z,72.70
2019-05-06T08:56:17.163Z,70.50
2019-05-06T08:58:47.060Z,70.30
2019-05-06T09:01:38.104Z,70.40
2019-05-06T09:04:12.482Z,71.30
2019-05-06T09:06:38.872Z,69.70
2019-05-06T09:09:09.480Z,69.70
2019-05-06T09:11:39.171Z,70.60
2019-05-06T09:14:09.931Z,66.70
2019-05-06T09:16:43.739Z,65.30
2019-05-06T09:19:12.982Z,64.80
2019-05-06T09:21:46.060Z,64.00
2019-05-06T09:24:17.068Z,62.70
2019-05-06T09:26:54.678Z,61.50
2019-05-06T09:29:39.220Z,57.70
2019-05-06T09:32:16.142Z,57.50
2019-05-06T09:34:52.430Z,58.70
2019-05-06T09:37:23.578Z,56.50
2019-05-06T09:39:53.451Z,57.10
2019-05-06T09:42:23.347Z,52.00
2019-05-06T09:44:54.156Z,50.80
2019-05-06T09:47:48.673Z,49.40
2019-05-06T09:50:25.438Z,47.10
2019-05-06T09:52:54.779Z,47.90
2019-05-06T09:55:49.338Z,46.60
2019-05-06T09:58:18.653Z,47.20
2019-05-06T10:00:51.309Z,45.40
2019-05-06T10:03:22.608Z,46.50
2019-05-06T10:05:53.078Z,45.10
2019-05-06T10:08:22.835Z,45.30
2019-05-06T10:10:56.767Z,44.60
2019-05-06T10:13:23.551Z,43.80
2019-05-06T10:15:53.660Z,42.50
2019-05-06T10:18:25.067Z,43.40
2019-05-06T10:20:54.672Z,43.10
2019-05-06T10:23:24.073Z,43.20
2019-05-06T10:25:53.396Z,41.70
2019-05-06T10:28:34.713Z,42.30
2019-05-06T10:31:06.315Z,41.60
2019-05-06T10:33:39.286Z,42.00
2019-05-06T10:36:08.595Z,41.20
2019-05-06T10:38:57.789Z,41.30
2019-05-06T10:41:32.833Z,42.10
2019-05-06T10:44:29.877Z,42.70
2019-05-06T10:46:59.402Z,40.50
2019-05-06T10:49:30.186Z,38.10
2019-05-06T10:52:09.886Z,36.90
2019-05-06T10:54:39.205Z,36.30
2019-05-06T10:57:19.163Z,37.50
2019-05-06T10:59:50.986Z,37.00
2019-05-06T11:02:42.997Z,38.20
2019-05-06T11:05:13.643Z,38.20
2019-05-06T11:07:43.201Z,36.10
2019-05-06T11:10:24.347Z,37.40
2019-05-06T11:12:44.385Z,38.00
2019-05-06T11:15:13.795Z,38.70
2019-05-06T11:17:43.719Z,39.40
2019-05-06T11:20:13.926Z,38.40
2019-05-06T11:22:43.771Z,36.30
2019-05-06T11:25:15.386Z,38.10
2019-05-06T11:27:45.468Z,36.60
2019-05-06T11:30:36.452Z,35.90
2019-05-06T11:33:17.562Z,37.10
2019-05-06T11:35:53.128Z,38.60
2019-05-06T11:38:22.866Z,38.80
2019-05-06T11:40:52.920Z,37.80
2019-05-06T11:43:25.517Z,37.60
2019-05-06T11:45:54.816Z,37.20
2019-05-06T11:48:24.092Z,37.20
2019-05-06T11:50:57.315Z,37.60
2019-05-06T11:53:26.634Z,38.70
2019-05-06T11:55:56.146Z,39.00
2019-05-06T11:58:42.819Z,41.40
2019-05-06T12:01:18.106Z,42.00
2019-05-06T12:03:47.427Z,42.40
2019-05-06T12:06:16.790Z,44.00
2019-05-06T12:08:46.202Z,46.70
2019-05-06T12:11:15.714Z,48.70
2019-05-06T12:13:45.009Z,49.40
2019-05-06T12:16:14.895Z,50.40
2019-05-06T12:18:44.406Z,47.80
2019-05-06T12:21:19.120Z,48.10
2019-05-06T12:23:45.172Z,46.50
2019-05-06T12:26:16.127Z,43.80
2019-05-06T12:28:45.412Z,41.50
2019-05-06T12:31:14.790Z,40.40
2019-05-06T12:33:48.492Z,40.00
2019-05-06T12:36:21.883Z,40.40
2019-05-06T12:39:14.936Z,39.80
2019-05-06T12:42:04.169Z,40.90
2019-05-06T12:44:35.138Z,41.90
2019-05-06T12:47:24.078Z,42.50
2019-05-06T12:49:53.601Z,43.30
2019-05-06T12:52:23.475Z,43.90
2019-05-06T12:54:56.290Z,43.00
2019-05-06T12:57:24.846Z,44.80
2019-05-06T12:59:54.245Z,43.60
2019-05-06T13:02:23.975Z,43.10
2019-05-06T13:04:59.852Z,42.90
2019-05-06T13:07:41.944Z,43.30
2019-05-06T13:10:13.009Z,42.20
2019-05-06T13:12:43.574Z,42.40
2019-05-06T13:15:13.491Z,41.90
2019-05-06T13:17:43.650Z,42.30
2019-05-06T13:20:14.704Z,41.60
2019-05-06T13:22:59.505Z,41.90
2019-05-06T13:25:32.769Z,41.70
2019-05-06T13:28:05.512Z,39.60
2019-05-06T13:30:37.034Z,39.20
2019-05-06T13:33:13.487Z,39.30
2019-05-06T13:35:43.762Z,40.50
2019-05-06T13:38:13.200Z,41.00
2019-05-06T13:40:53.902Z,40.90
2019-05-06T13:43:39.170Z,42.00
2019-05-06T13:46:23.211Z,42.00
2019-05-06T13:49:13.158Z,41.20
2019-05-06T13:51:48.503Z,42.10
2019-05-06T13:54:18.157Z,40.90
2019-05-06T13:56:49.012Z,41.60
2019-05-06T13:59:20.267Z,42.00
2019-05-06T14:02:11.702Z,39.80
2019-05-06T14:04:44.222Z,39.70
2019-05-06T14:07:13.297Z,39.80
2019-05-06T14:09:43.725Z,40.50
2019-05-06T14:12:13.548Z,40.10
2019-05-06T14:14:44.976Z,40.90
2019-05-06T14:17:14.794Z,41.60
2019-05-06T14:19:44.298Z,42.80
2019-05-06T14:22:14.767Z,42.60
2019-05-06T14:24:51.475Z,43.00
2019-05-06T14:27:22.151Z,42.60
2019-05-06T14:29:59.068Z,43.70
2019-05-06T14:32:29.060Z,43.70
2019-05-06T14:35:00.489Z,43.70
2019-05-06T14:37:32.815Z,43.30
2019-05-06T14:40:03.255Z,44.20
2019-05-06T14:42:34.310Z,45.50
2019-05-06T14:45:04.037Z,44.50
2019-05-06T14:47:37.647Z,45.60
2019-05-06T14:50:07.690Z,46.00
2019-05-06T14:52:38.735Z,46.20
2019-05-06T14:55:22.690Z,47.10
2019-05-06T14:57:53.472Z,47.50
2019-05-06T15:00:23.158Z,47.40
2019-05-06T15:02:53.324Z,46.40
2019-05-06T15:05:22.911Z,46.00
2019-05-06T15:08:01.678Z,45.60
2019-05-06T15:10:32.313Z,45.60
2019-05-06T15:13:02.215Z,46.50
2019-05-06T15:15:34.299Z,46.80
2019-05-06T15:18:06.051Z,47.60
2019-05-06T15:20:35.565Z,48.00
2019-05-06T15:23:05.055Z,48.90
2019-05-06T15:25:35.286Z,48.60
2019-05-06T15:28:06.044Z,48.80
2019-05-06T15:30:52.646Z,48.30
2019-05-06T15:33:24.238Z,49.00
2019-05-06T15:36:08.354Z,49.20
2019-05-06T15:38:38.638Z,48.90
2019-05-06T15:41:08.176Z,48.80
2019-05-06T15:43:37.630Z,48.50
2019-05-06T15:46:07.011Z,49.00
2019-05-06T15:48:41.582Z,49.60
2019-05-06T15:51:12.265Z,50.40
2019-05-06T15:53:54.427Z,51.10
2019-05-06T15:56:42.277Z,51.00
2019-05-06T15:59:12.164Z,52.00
2019-05-06T16:01:43.490Z,51.60
2019-05-06T16:04:15.076Z,51.80
2019-05-06T16:06:44.903Z,52.10
2019-05-06T16:09:23.347Z,53.00
2019-05-06T16:11:53.565Z,53.40
2019-05-06T16:14:39.282Z,54.40
2019-05-06T16:17:08.797Z,54.20
2019-05-06T16:19:38.303Z,54.80
2019-05-06T16:22:07.858Z,55.40
2019-05-06T16:25:02.696Z,54.80
2019-05-06T16:27:33.141Z,55.20
2019-05-06T16:30:03.483Z,55.50
2019-05-06T16:32:35.676Z,54.90
2019-05-06T16:35:06.350Z,54.80
2019-05-06T16:37:38.253Z,55.20
2019-05-06T16:40:08.331Z,54.00
2019-05-06T16:42:45.855Z,54.50
2019-05-06T16:45:18.561Z,54.10
2019-05-06T16:47:52.929Z,53.70
2019-05-06T16:50:37.420Z,53.70
2019-05-06T16:53:08.979Z,53.30
2019-05-06T16:56:03.024Z,51.20
2019-05-06T16:58:43.227Z,52.00
2019-05-06T17:01:16.777Z,51.40
2019-05-06T17:03:52.771Z,50.20
2019-05-06T17:06:42.921Z,50.60
2019-05-06T17:09:20.915Z,50.30
2019-05-06T17:11:50.872Z,50.40
2019-05-06T17:14:20.763Z,50.70
2019-05-06T17:16:52.950Z,51.40
2019-05-06T17:19:24.311Z,51.10
2019-05-06T17:21:54.464Z,51.70
2019-05-06T17:24:42.143Z,52.10
2019-05-06T17:27:12.101Z,53.40
2019-05-06T17:30:12.718Z,53.70
2019-05-06T17:32:52.606Z,53.80
2019-05-06T17:35:23.207Z,54.00
2019-05-06T17:37:59.182Z,54.50
2019-05-06T17:40:28.566Z,54.80
2019-05-06T17:42:58.545Z,55.20
2019-05-06T17:46:01.175Z,55.90
2019-05-06T17:48:46.799Z,56.20
2019-05-06T17:51:26.927Z,56.40
2019-05-06T17:54:08.888Z,57.30
2019-05-06T17:56:38.246Z,58.10
2019-05-06T17:59:11.645Z,58.30
2019-05-06T18:01:48.168Z,58.20
2019-05-06T18:04:24.930Z,58.40
2019-05-06T18:07:14.002Z,59.30
2019-05-06T18:10:03.342Z,59.80
2019-05-06T18:12:38.503Z,59.20
2019-05-06T18:15:13.271Z,60.30
2019-05-06T18:17:42.896Z,59.50
2019-05-06T18:20:23.274Z,59.80
2019-05-06T18:22:54.156Z,59.60
2019-05-06T18:25:37.427Z,59.60
2019-05-06T18:28:06.938Z,59.70
2019-05-06T18:30:37.279Z,59.60
2019-05-06T18:33:06.675Z,59.90
2019-05-06T18:35:38.567Z,60.30
2019-05-06T18:38:07.244Z,60.20
2019-05-06T18:40:36.611Z,60.80
2019-05-06T18:43:06.364Z,61.30
2019-05-06T18:45:37.973Z,61.80
2019-05-06T18:48:07.318Z,61.70
2019-05-06T18:50:37.166Z,62.10
2019-05-06T18:53:06.589Z,61.90
2019-05-06T18:55:36.002Z,61.90
2019-05-06T18:58:05.679Z,63.30
2019-05-06T19:00:35.048Z,62.60
2019-05-06T19:03:04.485Z,62.20
2019-05-06T19:05:38.497Z,62.80
2019-05-06T19:08:33.207Z,62.90
2019-05-06T19:11:03.665Z,63.00
2019-05-06T19:13:33.583Z,63.50
2019-05-06T19:16:03.222Z,64.10
2019-05-06T19:18:32.562Z,64.60
2019-05-06T19:21:02.917Z,64.60
2019-05-06T19:23:32.535Z,64.50
2019-05-06T19:26:02.863Z,64.50
2019-05-06T19:28:33.256Z,64.50
2019-05-06T19:31:03.281Z,64.90
2019-05-06T19:33:34.802Z,66.40
2019-05-06T19:36:04.903Z,67.00
2019-05-06T19:38:35.285Z,66.70
2019-05-06T19:41:05.912Z,66.50
2019-05-06T19:43:36.471Z,67.70
2019-05-06T19:46:13.261Z,67.30
2019-05-06T19:48:43.260Z,68.10
2019-05-06T19:51:13.282Z,69.00
2019-05-06T19:53:54.863Z,69.70
2019-05-06T19:57:07.903Z,70.00
2019-05-06T19:59:38.624Z,70.60
2019-05-06T20:02:08.192Z,71.20
2019-05-06T20:04:44.035Z,72.00
2019-05-06T20:07:32.544Z,72.50
2019-05-06T20:10:23.018Z,73.10
2019-05-06T20:13:01.990Z,73.50
2019-05-06T20:15:43.296Z,73.50
2019-05-06T20:18:12.824Z,73.80
2019-05-06T20:20:45.382Z,74.40
2019-05-06T20:23:19.106Z,75.10
2019-05-06T20:25:48.395Z,75.30
2019-05-06T20:28:17.991Z,76.60
2019-05-06T20:30:47.723Z,76.40
2019-05-06T20:33:17.429Z,76.00
2019-05-06T20:35:46.949Z,75.70
2019-05-06T20:38:17.234Z,75.40
2019-05-06T20:40:47.764Z,75.90
2019-05-06T20:43:21.698Z,75.80
2019-05-06T20:45:54.380Z,76.10
2019-05-06T20:48:23.876Z,76.20
2019-05-06T20:50:53.362Z,76.60
2019-05-06T20:53:23.367Z,77.00
2019-05-06T20:55:55.021Z,76.50
2019-05-06T20:58:25.122Z,76.80
2019-05-06T21:00:56.173Z,76.90
2019-05-06T21:03:29.801Z,76.90
2019-05-06T21:05:59.326Z,77.00
2019-05-06T21:08:29.003Z,77.70
2019-05-06T21:10:58.732Z,78.20
2019-05-06T21:13:32.393Z,78.10
2019-05-06T21:16:02.188Z,78.90
2019-05-06T21:18:32.754Z,79.70
2019-05-06T21:21:03.881Z,80.60
2019-05-06T21:23:33.494Z,80.90
2019-05-06T21:26:03.517Z,81.40
2019-05-06T21:28:33.089Z,82.50
2019-05-06T21:31:03.017Z,82.20
2019-05-06T21:33:33.006Z,82.60
2019-05-06T21:36:03.173Z,83.20
2019-05-06T21:38:33.224Z,83.90
2019-05-06T21:41:03.104Z,84.10
2019-05-06T21:43:46.049Z,84.20
2019-05-06T21:46:03.846Z,84.30
2019-05-06T21:48:35.997Z,84.20
2019-05-06T21:51:06.656Z,84.40
2019-05-06T21:53:38.560Z,84.20
2019-05-06T21:56:08.077Z,84.20
2019-05-06T21:58:37.500Z,84.10
2019-05-06T22:01:08.346Z,84.00
2019-05-06T22:03:37.844Z,83.60
2019-05-06T22:06:08.147Z,83.00
2019-05-06T22:08:37.552Z,82.80
2019-05-06T22:11:06.882Z,82.70
2019-05-06T22:13:36.233Z,82.90
2019-05-06T22:16:05.875Z,82.60
2019-05-06T22:18:35.194Z,82.10
2019-05-06T22:21:22.710Z,81.80
2019-05-06T22:24:04.741Z,81.90
2019-05-06T22:26:34.191Z,82.40
2019-05-06T22:29:12.224Z,82.60
2019-05-06T22:31:42.342Z,82.40
2019-05-06T22:34:13.412Z,82.50
2019-05-06T22:36:42.959Z,82.10
2019-05-06T22:39:13.879Z,81.40
2019-05-06T22:41:44.134Z,81.30
2019-05-06T22:44:14.997Z,81.00
2019-05-06T22:46:44.803Z,81.20
2019-05-06T22:49:14.378Z,80.90
2019-05-06T22:51:43.705Z,81.10
2019-05-06T22:54:13.096Z,81.80
2019-05-06T22:56:42.430Z,82.00
2019-05-06T22:59:12.670Z,82.60
2019-05-06T23:01:57.741Z,82.40
2019-05-06T23:04:28.407Z,81.40
2019-05-06T23:06:57.868Z,80.70
2019-05-06T23:09:27.134Z,79.50
2019-05-06T23:11:57.815Z,79.00
2019-05-06T23:14:31.578Z,79.80
2019-05-06T23:16:58.534Z,78.90
2019-05-06T23:19:28.081Z,78.90
2019-05-06T23:21:57.369Z,79.30
2019-05-06T23:24:28.013Z,79.50
2019-05-06T23:26:57.452Z,79.80
2019-05-06T23:29:29.078Z,80.20
2019-05-06T23:31:58.638Z,80.30
2019-05-06T23:34:28.043Z,81.00
2019-05-06T23:37:25.105Z,81.40
2019-05-06T23:40:39.779Z,81.30
2019-05-06T23:43:45.069Z,82.90
2019-05-06T23:46:52.298Z,82.10
2019-05-06T23:49:57.361Z,82.40
2019-05-06T23:53:03.164Z,82.20
2019-05-06T23:56:08.819Z,82.00
2019-05-06T23:58:38.633Z,81.60
